createdAt,value
2023-05-05T00:01:09.156Z,3.45
2023-05-05T00:03:35.782Z,3.58
2023-05-05T00:08:30.037Z,3.20
2023-05-05T00:10:57.602Z,3.33
2023-05-05T00:13:24.663Z,4.18
2023-05-05T00:15:53.308Z,3.60
2023-05-05T00:18:21.202Z,3.72
2023-05-05T00:20:48.692Z,3.40
2023-05-05T00:23:16.138Z,4.03
2023-05-05T00:25:42.857Z,3.20
2023-05-05T00:28:09.606Z,3.58
2023-05-05T00:30:36.396Z,3.80
2023-05-05T00:33:03.158Z,3.95
2023-05-05T00:35:29.808Z,3.80
2023-05-05T00:37:56.484Z,3.20
2023-05-05T00:40:23.458Z,3.25
2023-05-05T00:42:53.256Z,3.50
2023-05-05T00:45:20.329Z,3.35
2023-05-05T00:47:53.552Z,4.18
2023-05-05T00:50:30.981Z,4.40
2023-05-05T00:53:03.340Z,3.33
2023-05-05T00:55:30.913Z,4.32
2023-05-05T00:57:58.845Z,3.67
2023-05-05T01:00:26.428Z,4.03
2023-05-05T01:02:53.794Z,3.58
2023-05-05T01:05:23.429Z,3.17
2023-05-05T01:08:21.607Z,3.70
2023-05-05T01:11:20.901Z,3.80
2023-05-05T01:13:58.629Z,3.22
2023-05-05T01:16:27.305Z,3.83
2023-05-05T01:19:00.034Z,3.13
2023-05-05T01:24:05.135Z,2.72
2023-05-05T01:26:45.575Z,3.33
2023-05-05T01:29:34.458Z,3.67
2023-05-05T01:32:13.246Z,3.30
2023-05-05T01:34:53.346Z,3.40
2023-05-05T01:37:44.135Z,3.10
2023-05-05T01:40:14.248Z,3.10
2023-05-05T01:42:43.424Z,3.22
2023-05-05T01:45:14.465Z,3.25
2023-05-05T01:47:43.882Z,3.38
2023-05-05T01:50:12.178Z,3.35
2023-05-05T01:52:41.077Z,3.50
2023-05-05T01:55:09.763Z,3.25
2023-05-05T01:57:38.996Z,4.60
2023-05-05T02:00:07.334Z,3.47
2023-05-05T02:02:37.367Z,3.00
2023-05-05T02:05:05.623Z,3.28
2023-05-05T02:07:34.486Z,3.35
2023-05-05T02:10:03.131Z,3.70
2023-05-05T02:12:31.768Z,3.83
2023-05-05T02:15:00.275Z,3.50
2023-05-05T02:17:27.783Z,3.47
2023-05-05T02:19:55.812Z,3.35
2023-05-05T02:22:22.942Z,3.85
2023-05-05T02:24:49.543Z,3.85
2023-05-05T02:27:18.929Z,3.60
2023-05-05T02:29:52.709Z,3.38
2023-05-05T02:32:28.675Z,3.97
2023-05-05T02:34:58.494Z,4.15
2023-05-05T02:37:29.700Z,3.80
2023-05-05T02:40:05.916Z,3.65
2023-05-05T02:42:39.741Z,4.35
2023-05-05T02:45:12.729Z,3.70
2023-05-05T02:47:39.604Z,4.57
2023-05-05T02:50:08.288Z,3.55
2023-05-05T02:52:35.930Z,4.50
2023-05-05T02:55:04.481Z,4.25
2023-05-05T02:57:57.413Z,4.03
2023-05-05T03:00:34.259Z,3.55
2023-05-05T03:03:13.905Z,4.18
2023-05-05T03:05:45.896Z,4.10
2023-05-05T03:08:30.224Z,4.13
2023-05-05T03:11:11.509Z,4.10
2023-05-05T03:13:42.794Z,3.83
2023-05-05T03:16:11.713Z,3.30
2023-05-05T03:18:39.824Z,3.90
2023-05-05T03:21:10.134Z,4.00
2023-05-05T03:23:37.456Z,4.20
2023-05-05T03:26:04.015Z,3.63
2023-05-05T03:28:30.540Z,3.95
2023-05-05T03:30:57.430Z,4.10
2023-05-05T03:33:24.015Z,3.78
2023-05-05T03:35:50.538Z,3.53
2023-05-05T03:40:45.003Z,3.83
2023-05-05T03:43:12.079Z,4.10
2023-05-05T03:45:38.726Z,3.80
2023-05-05T03:50:32.282Z,3.67
2023-05-05T03:52:58.742Z,4.35
2023-05-05T03:55:25.758Z,4.15
2023-05-05T03:57:52.535Z,4.38
2023-05-05T04:00:19.428Z,3.67
2023-05-05T04:05:12.585Z,4.05
2023-05-05T04:07:39.216Z,3.88
2023-05-05T04:10:06.934Z,4.28
2023-05-05T04:12:33.975Z,4.53
2023-05-05T04:15:00.426Z,4.60
2023-05-05T04:17:27.073Z,3.85
2023-05-05T04:22:20.453Z,3.88
2023-05-05T04:27:14.235Z,3.60
2023-05-05T04:29:41.265Z,3.90
2023-05-05T04:32:07.912Z,3.33
2023-05-05T04:34:34.374Z,4.60
2023-05-05T04:37:01.108Z,4.07
2023-05-05T04:41:54.249Z,4.22
2023-05-05T04:44:20.909Z,3.92
2023-05-05T04:46:47.398Z,4.47
2023-05-05T04:49:13.921Z,4.63
2023-05-05T04:51:43.494Z,4.20
2023-05-05T04:54:10.064Z,3.75
2023-05-05T04:56:37.045Z,3.95
2023-05-05T04:59:03.848Z,4.15
2023-05-05T05:01:31.686Z,3.53
2023-05-05T05:03:58.325Z,3.60
2023-05-05T05:08:52.028Z,3.85
2023-05-05T05:11:18.672Z,4.00
2023-05-05T05:16:12.992Z,4.00
2023-05-05T05:18:39.985Z,3.58
2023-05-05T05:21:07.302Z,4.22
2023-05-05T05:23:33.871Z,4.13
2023-05-05T05:28:26.887Z,4.05
2023-05-05T05:30:53.869Z,3.88
2023-05-05T05:33:20.881Z,4.05
2023-05-05T05:35:47.522Z,4.20
2023-05-05T05:38:14.424Z,5.00
2023-05-05T05:40:41.270Z,4.32
2023-05-05T05:43:08.169Z,4.05
2023-05-05T05:45:34.749Z,4.65
2023-05-05T05:48:01.155Z,4.88
2023-05-05T05:50:28.737Z,4.95
2023-05-05T05:52:55.960Z,4.93
2023-05-05T05:55:22.376Z,4.43
2023-05-05T05:57:49.146Z,4.72
2023-05-05T06:00:16.043Z,4.45
2023-05-05T06:02:43.078Z,4.43
2023-05-05T06:07:37.186Z,4.45
2023-05-05T06:10:22.884Z,4.57
2023-05-05T06:12:52.420Z,4.85
2023-05-05T06:15:18.962Z,4.53
2023-05-05T06:17:45.786Z,4.88
2023-05-05T06:22:40.314Z,4.75
2023-05-05T06:27:34.104Z,4.80
2023-05-05T06:30:00.670Z,4.53
2023-05-05T06:32:27.332Z,5.32
2023-05-05T06:34:53.765Z,4.82
2023-05-05T06:37:20.470Z,4.93
2023-05-05T06:42:13.496Z,4.05
2023-05-05T06:44:40.425Z,4.50
2023-05-05T06:47:07.205Z,4.38
2023-05-05T06:49:33.646Z,3.92
2023-05-05T06:52:00.167Z,4.28
2023-05-05T06:54:26.888Z,4.40
2023-05-05T06:59:19.975Z,4.03
2023-05-05T07:01:47.416Z,4.47
2023-05-05T07:06:40.688Z,4.13
2023-05-05T07:09:07.225Z,4.70
2023-05-05T07:11:34.372Z,4.88
2023-05-05T07:14:01.080Z,4.30
2023-05-05T07:16:27.969Z,4.63
2023-05-05T07:18:55.205Z,4.70
2023-05-05T07:21:21.985Z,4.40
2023-05-05T07:23:48.591Z,4.63
2023-05-05T07:28:43.084Z,4.00
2023-05-05T07:31:09.808Z,4.72
2023-05-05T07:33:36.483Z,4.57
2023-05-05T07:36:03.276Z,4.82
2023-05-05T07:38:29.819Z,4.25
2023-05-05T07:40:56.350Z,4.80
2023-05-05T07:43:22.957Z,4.85
2023-05-05T07:45:49.731Z,4.45
2023-05-05T07:48:17.242Z,4.43
2023-05-05T07:50:44.788Z,4.78
2023-05-05T07:53:14.882Z,4.75
2023-05-05T07:55:42.238Z,4.55
2023-05-05T07:58:10.945Z,5.32
2023-05-05T08:00:38.287Z,5.00
2023-05-05T08:03:04.975Z,4.45
2023-05-05T08:05:31.740Z,4.70
2023-05-05T08:07:58.739Z,4.22
2023-05-05T08:10:25.377Z,4.32
2023-05-05T08:12:54.287Z,4.93
2023-05-05T08:15:21.527Z,4.97
2023-05-05T08:17:53.092Z,5.88
2023-05-05T08:20:20.512Z,5.72
2023-05-05T08:22:48.277Z,5.05
2023-05-05T08:25:15.383Z,4.97
2023-05-05T08:27:43.145Z,4.60
2023-05-05T08:30:10.355Z,6.15
2023-05-05T08:32:38.295Z,5.55
2023-05-05T08:35:06.326Z,5.38
2023-05-05T08:37:34.142Z,4.75
2023-05-05T08:40:00.748Z,6.22
2023-05-05T08:45:07.116Z,7.95
2023-05-05T08:47:35.477Z,7.93
2023-05-05T08:50:02.332Z,8.45
2023-05-05T08:52:37.845Z,10.93
2023-05-05T08:55:09.102Z,10.20
2023-05-05T08:57:57.252Z,11.02
2023-05-05T09:00:27.245Z,9.10
2023-05-05T09:02:57.140Z,9.88
2023-05-05T09:05:25.006Z,8.57
2023-05-05T09:07:52.244Z,8.63
2023-05-05T09:10:18.963Z,9.80
2023-05-05T09:12:46.541Z,8.63
2023-05-05T09:15:14.714Z,9.52
2023-05-05T09:17:42.285Z,8.45
2023-05-05T09:20:12.170Z,8.80
2023-05-05T09:22:46.534Z,9.98
2023-05-05T09:25:15.538Z,8.48
2023-05-05T09:27:45.927Z,7.85
2023-05-05T09:30:16.671Z,8.65
2023-05-05T09:32:51.407Z,8.40
2023-05-05T09:35:19.400Z,8.25
2023-05-05T09:37:46.875Z,8.00
2023-05-05T09:40:15.620Z,8.20
2023-05-05T09:42:42.763Z,7.45
2023-05-05T09:45:18.494Z,7.25
2023-05-05T09:47:46.896Z,6.28
2023-05-05T09:50:16.056Z,6.10
2023-05-05T09:52:43.233Z,5.82
2023-05-05T09:55:17.668Z,6.57
2023-05-05T09:57:44.437Z,5.68
2023-05-05T10:02:39.819Z,6.15
2023-05-05T10:05:12.557Z,5.35
2023-05-05T10:07:41.185Z,6.22
2023-05-05T10:10:14.262Z,5.85
2023-05-05T10:12:42.118Z,5.70
2023-05-05T10:15:10.721Z,6.03
2023-05-05T10:17:58.373Z,5.53
2023-05-05T10:20:33.290Z,5.82
2023-05-05T10:23:05.466Z,5.43
2023-05-05T10:25:41.563Z,5.13
2023-05-05T10:28:11.817Z,5.13
2023-05-05T10:30:44.602Z,5.43
2023-05-05T10:35:53.825Z,5.10
2023-05-05T10:38:21.463Z,4.80
2023-05-05T10:40:49.078Z,5.50
2023-05-05T10:43:15.682Z,5.57
2023-05-05T10:45:43.710Z,5.15
2023-05-05T10:48:18.639Z,5.05
2023-05-05T10:50:51.668Z,4.63
2023-05-05T10:53:28.528Z,5.15
2023-05-05T10:56:16.469Z,5.47
2023-05-05T10:58:55.565Z,5.20
2023-05-05T11:01:36.419Z,5.88
2023-05-05T11:04:24.787Z,7.05
2023-05-05T11:07:13.442Z,6.95
2023-05-05T11:10:14.638Z,7.43
2023-05-05T11:12:54.766Z,6.63
2023-05-05T11:15:27.321Z,7.07
2023-05-05T11:17:56.044Z,6.90
2023-05-05T11:20:35.026Z,6.45
2023-05-05T11:23:02.443Z,5.80
2023-05-05T11:25:35.343Z,5.65
2023-05-05T11:28:19.310Z,5.50
2023-05-05T11:30:54.805Z,4.00
2023-05-05T11:33:31.012Z,4.85
2023-05-05T11:36:08.943Z,4.40
2023-05-05T11:38:41.353Z,4.50
2023-05-05T11:41:26.670Z,3.72
2023-05-05T11:44:15.879Z,3.80
2023-05-05T11:46:51.436Z,4.10
2023-05-05T11:49:31.618Z,5.05
2023-05-05T11:52:02.762Z,5.38
2023-05-05T11:54:30.848Z,5.30
2023-05-05T11:56:59.580Z,5.07
2023-05-05T11:59:26.842Z,4.07
2023-05-05T12:01:53.740Z,4.32
2023-05-05T12:04:21.898Z,2.60
2023-05-05T12:06:49.058Z,2.15
2023-05-05T12:09:16.405Z,1.10
2023-05-05T12:11:57.102Z,1.33
2023-05-05T12:14:24.495Z,0.77
2023-05-05T12:16:55.651Z,0.60
2023-05-05T12:19:22.798Z,0.47
2023-05-05T12:21:50.227Z,0.47
2023-05-05T12:24:17.101Z,0.50
2023-05-05T12:26:43.993Z,0.60
2023-05-05T12:29:10.803Z,0.45
2023-05-05T12:31:42.150Z,0.65
2023-05-05T12:34:10.685Z,0.52
2023-05-05T12:36:37.497Z,0.70
2023-05-05T12:39:07.455Z,0.28
2023-05-05T12:41:34.658Z,0.68
2023-05-05T12:44:03.167Z,0.40
2023-05-05T12:46:30.966Z,0.50
2023-05-05T12:49:05.704Z,0.35
2023-05-05T12:51:36.441Z,0.43
2023-05-05T12:54:11.311Z,0.80
2023-05-05T12:56:48.118Z,0.63
2023-05-05T12:59:21.090Z,0.75
2023-05-05T13:01:53.224Z,0.93
2023-05-05T13:04:21.651Z,0.80
2023-05-05T13:06:49.655Z,0.60
2023-05-05T13:09:34.350Z,0.93
2023-05-05T13:12:04.595Z,0.65
2023-05-05T13:14:31.809Z,0.73
2023-05-05T13:16:58.835Z,0.88
2023-05-05T13:19:26.278Z,0.68
2023-05-05T13:21:53.578Z,0.70
2023-05-05T13:24:31.185Z,0.50
2023-05-05T13:27:05.475Z,0.73
2023-05-05T13:29:33.163Z,0.73
2023-05-05T13:32:00.145Z,0.80
2023-05-05T13:34:27.051Z,0.47
2023-05-05T13:36:53.678Z,0.68
2023-05-05T13:39:20.288Z,0.95
2023-05-05T13:41:46.735Z,0.75
2023-05-05T13:44:14.029Z,1.10
2023-05-05T13:46:42.514Z,1.02
2023-05-05T13:49:09.304Z,0.82
2023-05-05T13:51:36.863Z,1.20
2023-05-05T13:54:04.109Z,0.93
2023-05-05T13:56:31.068Z,1.10
2023-05-05T13:58:57.828Z,1.00
2023-05-05T14:01:24.616Z,1.23
2023-05-05T14:03:51.560Z,1.08
2023-05-05T14:06:18.283Z,1.42
2023-05-05T14:08:46.249Z,1.13
2023-05-05T14:11:13.696Z,1.02
2023-05-05T14:13:40.546Z,1.77
2023-05-05T14:18:34.099Z,1.05
2023-05-05T14:23:27.396Z,1.40
2023-05-05T14:25:54.538Z,1.20
2023-05-05T14:28:21.022Z,1.23
2023-05-05T14:33:14.027Z,1.15
2023-05-05T14:35:40.896Z,1.30
2023-05-05T14:38:26.691Z,1.63
2023-05-05T14:40:53.396Z,1.40
2023-05-05T14:43:21.831Z,1.15
2023-05-05T14:45:48.772Z,1.50
2023-05-05T14:48:15.782Z,1.27
2023-05-05T14:50:42.753Z,1.20
2023-05-05T14:53:09.607Z,1.63
2023-05-05T14:55:37.056Z,1.55
2023-05-05T14:58:03.658Z,1.33
2023-05-05T15:02:56.798Z,1.30
2023-05-05T15:05:23.271Z,1.38
2023-05-05T15:07:49.861Z,1.27
2023-05-05T15:10:16.524Z,1.27
2023-05-05T15:12:43.500Z,1.40
2023-05-05T15:15:10.592Z,1.50
2023-05-05T15:17:38.649Z,2.97
2023-05-05T15:20:06.678Z,1.60
2023-05-05T15:22:33.379Z,2.22
2023-05-05T15:25:00.244Z,2.78
2023-05-05T15:27:27.026Z,1.65
2023-05-05T15:29:54.412Z,1.70
2023-05-05T15:32:21.202Z,1.83
2023-05-05T15:34:50.223Z,1.55
2023-05-05T15:37:17.099Z,1.52
2023-05-05T15:39:43.699Z,1.67
2023-05-05T15:42:10.204Z,1.55
2023-05-05T15:44:38.182Z,1.65
2023-05-05T15:47:06.308Z,1.85
2023-05-05T15:49:32.810Z,1.50
2023-05-05T15:51:59.652Z,1.52
2023-05-05T15:54:26.374Z,1.40
2023-05-05T15:56:52.980Z,1.77
2023-05-05T15:59:19.531Z,2.20
2023-05-05T16:04:13.867Z,1.55
2023-05-05T16:06:40.874Z,1.88
2023-05-05T16:09:07.506Z,1.65
2023-05-05T16:11:34.183Z,1.90
2023-05-05T16:14:00.970Z,1.70
2023-05-05T16:16:27.602Z,2.25
2023-05-05T16:18:54.734Z,2.10
2023-05-05T16:21:21.169Z,1.52
2023-05-05T16:23:47.703Z,1.70
2023-05-05T16:26:14.196Z,1.50
2023-05-05T16:28:40.785Z,1.58
2023-05-05T16:33:40.675Z,1.58
2023-05-05T16:36:09.969Z,1.20
2023-05-05T16:38:37.326Z,2.05
2023-05-05T16:41:04.104Z,1.42
2023-05-05T16:43:30.854Z,0.90
2023-05-05T16:45:57.568Z,0.65
2023-05-05T16:48:24.544Z,0.93
2023-05-05T16:53:18.046Z,1.13
2023-05-05T16:55:44.565Z,1.30
2023-05-05T16:58:12.385Z,1.23
2023-05-05T17:00:39.403Z,1.20
2023-05-05T17:03:06.233Z,1.20
2023-05-05T17:05:32.790Z,1.00
2023-05-05T17:10:25.774Z,0.90
2023-05-05T17:12:52.714Z,1.20
2023-05-05T17:17:45.810Z,1.23
2023-05-05T17:20:12.991Z,0.90
2023-05-05T17:22:40.275Z,1.10
2023-05-05T17:25:07.362Z,1.23
2023-05-05T17:27:34.048Z,0.82
2023-05-05T17:32:27.187Z,1.00
2023-05-05T17:34:54.301Z,1.17
2023-05-05T17:37:20.973Z,0.90
2023-05-05T17:42:14.218Z,1.02
2023-05-05T17:44:40.895Z,1.17
2023-05-05T17:49:34.715Z,0.70
2023-05-05T17:52:01.378Z,0.93
2023-05-05T17:54:29.922Z,0.82
2023-05-05T17:56:57.362Z,0.98
2023-05-05T17:59:23.872Z,0.80
2023-05-05T18:04:17.439Z,0.82
2023-05-05T18:06:44.171Z,0.47
2023-05-05T18:09:11.982Z,0.63
2023-05-05T18:11:38.494Z,0.63
2023-05-05T18:14:05.381Z,0.85
2023-05-05T18:16:31.879Z,1.02
2023-05-05T18:18:58.896Z,0.80
2023-05-05T18:21:25.781Z,0.63
2023-05-05T18:23:57.297Z,1.25
2023-05-05T18:26:28.634Z,0.80
2023-05-05T18:28:55.070Z,0.60
2023-05-05T18:31:22.165Z,0.82
2023-05-05T18:33:48.896Z,0.60
2023-05-05T18:36:15.705Z,0.77
2023-05-05T18:38:42.182Z,0.60
2023-05-05T18:43:36.229Z,0.63
2023-05-05T18:48:30.530Z,0.30
2023-05-05T18:51:04.126Z,0.60
2023-05-05T18:53:31.805Z,0.90
2023-05-05T18:55:59.027Z,0.63
2023-05-05T18:58:26.596Z,0.63
2023-05-05T19:00:53.383Z,0.60
2023-05-05T19:03:20.204Z,0.57
2023-05-05T19:05:46.982Z,0.70
2023-05-05T19:08:13.926Z,0.70
2023-05-05T19:10:40.803Z,0.75
2023-05-05T19:13:09.812Z,0.60
2023-05-05T19:15:36.722Z,0.70
2023-05-05T19:20:32.480Z,0.50
2023-05-05T19:23:03.578Z,0.70
2023-05-05T19:25:31.356Z,1.00
2023-05-05T19:27:58.258Z,1.00
2023-05-05T19:30:26.383Z,0.88
2023-05-05T19:32:53.476Z,1.30
2023-05-05T19:35:20.044Z,1.80
2023-05-05T19:37:47.030Z,1.67
2023-05-05T19:40:14.062Z,1.77
2023-05-05T19:42:41.202Z,2.38
2023-05-05T19:45:08.156Z,2.00
2023-05-05T19:47:35.717Z,2.00
2023-05-05T19:50:02.512Z,1.85
2023-05-05T19:52:29.127Z,1.50
2023-05-05T19:54:55.989Z,1.65
2023-05-05T19:57:22.699Z,1.55
2023-05-05T20:02:21.841Z,1.60
2023-05-05T20:04:49.504Z,1.77
2023-05-05T20:07:17.771Z,1.30
2023-05-05T20:09:45.099Z,1.45
2023-05-05T20:12:12.172Z,1.30
2023-05-05T20:14:39.558Z,1.10
2023-05-05T20:17:06.029Z,1.20
2023-05-05T20:19:32.848Z,1.65
2023-05-05T20:24:28.882Z,1.40
2023-05-05T20:26:55.587Z,1.52
2023-05-05T20:29:22.571Z,1.20
2023-05-05T20:31:49.190Z,1.40
2023-05-05T20:34:16.261Z,1.45
2023-05-05T20:36:43.132Z,1.30
2023-05-05T20:39:15.243Z,1.95
2023-05-05T20:41:42.017Z,1.48
2023-05-05T20:44:11.449Z,1.58
2023-05-05T20:46:38.046Z,1.20
2023-05-05T20:51:34.166Z,1.30
2023-05-05T20:54:02.109Z,2.00
2023-05-05T20:56:28.760Z,1.25
2023-05-05T21:01:24.477Z,1.30
2023-05-05T21:03:51.391Z,1.45
2023-05-05T21:06:19.512Z,1.83
2023-05-05T21:08:47.126Z,1.73
2023-05-05T21:11:13.643Z,1.95
2023-05-05T21:16:06.814Z,1.65
2023-05-05T21:18:33.390Z,2.20
2023-05-05T21:21:01.196Z,2.70
2023-05-05T21:23:28.281Z,2.15
2023-05-05T21:28:21.939Z,2.33
2023-05-05T21:31:10.364Z,1.92
2023-05-05T21:33:37.449Z,3.30
2023-05-05T21:36:04.519Z,3.42
2023-05-05T21:38:31.104Z,3.00
2023-05-05T21:40:58.431Z,3.28
2023-05-05T21:43:26.647Z,2.60
2023-05-05T21:46:03.368Z,2.33
2023-05-05T21:48:31.277Z,1.80
2023-05-05T21:50:57.976Z,1.90
2023-05-05T21:55:51.906Z,2.03
2023-05-05T21:58:18.305Z,2.78
2023-05-05T22:00:44.972Z,3.05
2023-05-05T22:03:11.521Z,2.00
2023-05-05T22:05:38.493Z,1.65
2023-05-05T22:10:32.125Z,2.15
2023-05-05T22:12:58.802Z,2.40
2023-05-05T22:15:29.850Z,2.50
2023-05-05T22:17:59.448Z,2.92
2023-05-05T22:22:52.966Z,1.85
2023-05-05T22:25:19.673Z,1.80
2023-05-05T22:27:46.849Z,2.28
2023-05-05T22:30:14.008Z,2.25
2023-05-05T22:32:43.283Z,2.28
2023-05-05T22:35:09.947Z,2.58
2023-05-05T22:37:37.137Z,2.65
2023-05-05T22:40:04.668Z,2.25
2023-05-05T22:42:31.161Z,2.22
2023-05-05T22:47:24.397Z,2.40
2023-05-05T22:49:50.926Z,2.83
2023-05-05T22:52:17.932Z,2.25
2023-05-05T22:54:44.573Z,3.10
2023-05-05T22:57:11.555Z,3.03
2023-05-05T23:02:05.108Z,2.95
2023-05-05T23:04:31.786Z,3.50
2023-05-05T23:06:58.768Z,2.65
2023-05-05T23:09:25.657Z,3.40
2023-05-05T23:11:52.373Z,3.33
2023-05-05T23:14:19.479Z,3.85
2023-05-05T23:16:46.428Z,2.95
2023-05-05T23:19:13.709Z,3.55
2023-05-05T23:24:19.686Z,3.17
2023-05-05T23:26:46.084Z,3.50
2023-05-05T23:31:39.445Z,2.83
2023-05-05T23:36:32.782Z,3.17
2023-05-05T23:38:59.364Z,4.28
2023-05-05T23:43:53.381Z,3.40
2023-05-05T23:46:19.927Z,2.88
2023-05-05T23:51:13.220Z,3.92
2023-05-05T23:53:40.056Z,4.50
2023-05-05T23:56:07.486Z,3.60
2023-05-05T23:58:34.463Z,4.10
